Time;durP1;ratioP1;P1;durP2;ratioP2;P2;SDS_P1;SDS_P2;PMS_P1;PMS_P2;Temp;Humidity;BMP_temperature;BMP_pressure;BME280_temperature;BME280_humidity;BME280_pressure;Samples;Min_cycle;Max_cycle;Signal;HPM_P1;HPM_P2
2022/04/13 00:02:01;;;;;;;2.30;1.60;;;18.50;58.10;;;;;;4911042;28;92756;-71
2022/04/13 00:04:28;;;;;;;2.92;1.50;;;18.40;58.00;;;;;;4911914;28;93003;-71
2022/04/13 00:06:54;;;;;;;4.18;1.67;;;18.50;58.10;;;;;;4910559;28;92534;-72
2022/04/13 00:09:20;;;;;;;3.00;1.45;;;18.40;58.00;;;;;;4911345;28;94232;-71
2022/04/13 00:11:45;;;;;;;2.47;1.58;;;18.40;58.00;;;;;;4911425;28;92756;-71
2022/04/13 00:14:11;;;;;;;3.88;1.73;;;18.40;58.00;;;;;;4911542;28;92874;-71
2022/04/13 00:16:37;;;;;;;3.65;1.80;;;18.40;58.00;;;;;;4910703;28;92959;-69
2022/04/13 00:19:03;;;;;;;3.17;1.88;;;18.40;58.00;;;;;;4909146;28;97582;-71
2022/04/13 00:21:28;;;;;;;2.28;1.73;;;18.40;58.10;;;;;;4910099;28;96345;-71
2022/04/13 00:23:56;;;;;;;2.38;1.83;;;18.40;58.10;;;;;;4911795;28;92920;-71
2022/04/13 00:26:22;;;;;;;2.22;1.48;;;18.40;58.00;;;;;;4911165;28;92667;-71
2022/04/13 00:28:48;;;;;;;1.98;1.55;;;18.40;57.90;;;;;;4911921;28;93160;-71
2022/04/13 00:31:13;;;;;;;3.38;1.90;;;18.40;58.00;;;;;;4911733;28;95431;-72
2022/04/13 00:33:39;;;;;;;2.40;1.48;;;18.40;58.00;;;;;;4911678;28;92900;-71
2022/04/13 00:36:04;;;;;;;1.45;1.30;;;18.40;58.00;;;;;;4913303;28;92254;-71
2022/04/13 00:38:30;;;;;;;3.05;1.60;;;18.40;57.90;;;;;;4911696;28;93792;-72
2022/04/13 00:40:56;;;;;;;3.35;1.70;;;18.40;57.90;;;;;;4912127;28;93221;-71
2022/04/13 00:43:21;;;;;;;2.95;1.52;;;18.40;57.90;;;;;;4910106;28;95399;-71
2022/04/13 00:45:50;;;;;;;2.60;1.70;;;18.40;57.90;;;;;;4912176;28;92518;-71
2022/04/13 00:48:39;;;;;;;3.13;1.85;;;18.40;57.90;;;;;;4910931;28;94589;-71
2022/04/13 00:51:05;;;;;;;1.83;1.63;;;18.40;57.90;;;;;;4914937;28;94799;-72
2022/04/13 00:53:33;;;;;;;2.88;1.60;;;18.40;58.00;;;;;;4914894;28;93093;-71
2022/04/13 00:56:01;;;;;;;3.00;1.70;;;18.40;58.90;;;;;;4914729;28;92638;-71
2022/04/13 00:58:28;;;;;;;2.53;1.80;;;18.40;58.00;;;;;;4914692;28;93512;-71
2022/04/13 01:00:55;;;;;;;1.95;1.60;;;18.40;57.90;;;;;;4914965;28;93963;-71
2022/04/13 01:03:24;;;;;;;3.30;1.70;;;18.40;57.90;;;;;;4915182;28;92513;-71
2022/04/13 01:05:51;;;;;;;2.30;1.60;;;18.40;57.90;;;;;;4914603;28;92463;-71
2022/04/13 01:08:18;;;;;;;4.03;1.90;;;18.40;57.90;;;;;;4913618;28;95464;-71
2022/04/13 01:10:45;;;;;;;1.83;1.60;;;18.40;57.90;;;;;;4914392;28;95339;-72
2022/04/13 01:13:13;;;;;;;2.28;1.60;;;18.40;57.90;;;;;;4915109;28;93059;-71
2022/04/13 01:15:40;;;;;;;1.77;1.50;;;18.40;57.90;;;;;;4914621;28;92922;-71
2022/04/13 01:18:06;;;;;;;2.33;1.60;;;18.40;57.90;;;;;;4913486;28;95901;-72
2022/04/13 01:20:34;;;;;;;2.35;1.77;;;18.40;57.90;;;;;;4913863;28;93763;-71
2022/04/13 01:23:00;;;;;;;2.13;1.83;;;18.40;57.90;;;;;;4914585;28;92839;-73
2022/04/13 01:25:26;;;;;;;2.75;1.83;;;18.40;57.90;;;;;;4914547;28;92253;-73
2022/04/13 01:27:52;;;;;;;2.85;1.60;;;18.40;57.90;;;;;;4913494;28;94362;-71
2022/04/13 01:30:18;;;;;;;3.38;1.70;;;18.40;57.80;;;;;;4913247;28;110387;-72
2022/04/13 01:32:43;;;;;;;2.90;1.60;;;18.40;57.90;;;;;;4912858;28;94903;-71
2022/04/13 01:35:09;;;;;;;2.97;2.00;;;18.40;57.90;;;;;;4914025;28;92548;-71
2022/04/13 01:37:35;;;;;;;3.50;1.98;;;18.40;57.90;;;;;;4913720;28;93366;-71
2022/04/13 01:40:01;;;;;;;2.80;1.83;;;18.40;57.90;;;;;;4914868;28;93562;-71
2022/04/13 01:42:28;;;;;;;2.53;1.88;;;18.40;57.90;;;;;;4913724;28;92904;-71
2022/04/13 01:44:54;;;;;;;2.85;1.65;;;18.30;57.80;;;;;;4913800;28;92942;-71
2022/04/13 01:47:20;;;;;;;2.90;1.98;;;18.30;57.80;;;;;;4913069;28;94309;-72
2022/04/13 01:49:45;;;;;;;3.08;2.00;;;18.30;57.80;;;;;;4914340;28;94067;-72
2022/04/13 01:52:11;;;;;;;2.20;1.58;;;18.40;57.90;;;;;;4913397;28;93011;-71
2022/04/13 01:54:37;;;;;;;1.95;1.60;;;18.30;57.80;;;;;;4914044;28;92590;-71
2022/04/13 01:57:03;;;;;;;3.00;1.90;;;18.30;57.80;;;;;;4912284;28;95652;-71
2022/04/13 01:59:29;;;;;;;2.65;1.85;;;18.30;57.80;;;;;;4913048;28;95276;-71
2022/04/13 02:01:55;;;;;;;2.10;1.90;;;18.30;57.80;;;;;;4913131;28;92732;-71
2022/04/13 02:04:23;;;;;;;2.35;1.83;;;18.30;57.80;;;;;;4913224;28;92571;-71
2022/04/13 02:06:49;;;;;;;2.20;2.00;;;18.30;57.80;;;;;;4912932;28;94342;-71
2022/04/13 02:09:17;;;;;;;3.15;1.80;;;18.30;57.90;;;;;;4914064;28;94198;-71
2022/04/13 02:11:44;;;;;;;2.53;1.77;;;18.30;57.80;;;;;;4915220;28;92769;-71
2022/04/13 02:14:10;;;;;;;2.88;1.77;;;18.30;57.80;;;;;;4918958;28;91729;-71
2022/04/13 02:16:36;;;;;;;2.17;1.70;;;18.30;57.90;;;;;;4915497;28;92934;-70
2022/04/13 02:19:03;;;;;;;3.53;1.90;;;18.30;57.80;;;;;;4912907;28;94163;-72
2022/04/13 02:21:28;;;;;;;1.98;1.77;;;18.30;57.90;;;;;;4912765;28;95285;-71
2022/04/13 02:23:54;;;;;;;2.97;1.90;;;18.30;57.90;;;;;;4913571;28;92503;-71
2022/04/13 02:26:19;;;;;;;2.50;1.85;;;18.30;57.90;;;;;;4912666;28;93253;-70
2022/04/13 02:28:46;;;;;;;3.20;2.00;;;18.30;57.80;;;;;;4912448;28;105178;-71
2022/04/13 02:31:12;;;;;;;2.67;1.80;;;18.30;57.90;;;;;;4912896;28;93160;-72
2022/04/13 02:33:38;;;;;;;2.75;1.70;;;18.30;57.80;;;;;;4913151;28;92946;-71
2022/04/13 02:36:05;;;;;;;2.25;1.63;;;18.30;57.90;;;;;;4912996;28;94183;-72
2022/04/13 02:38:32;;;;;;;2.25;1.70;;;18.30;57.80;;;;;;4913407;28;94513;-71
2022/04/13 02:40:57;;;;;;;3.03;2.10;;;18.30;57.80;;;;;;4913345;28;92736;-71
2022/04/13 02:43:28;;;;;;;2.28;1.75;;;18.30;57.90;;;;;;4913861;28;92928;-72
2022/04/13 02:45:54;;;;;;;2.50;1.80;;;18.30;57.80;;;;;;4911203;28;96567;-71
2022/04/13 02:48:20;;;;;;;2.17;1.55;;;18.30;58.80;;;;;;4912754;28;95507;-71
2022/04/13 02:50:46;;;;;;;2.88;1.90;;;18.20;57.80;;;;;;4912108;28;93013;-71
2022/04/13 02:53:11;;;;;;;2.70;1.77;;;18.30;57.90;;;;;;4913618;28;93063;-71
2022/04/13 02:55:37;;;;;;;2.70;1.90;;;18.30;57.80;;;;;;4911998;28;96770;-71
2022/04/13 02:58:02;;;;;;;1.92;1.73;;;18.30;57.80;;;;;;4895582;28;96112;-72
2022/04/13 03:00:29;;;;;;;2.20;1.60;;;18.30;57.80;;;;;;4911578;28;92452;-71
2022/04/13 03:02:55;;;;;;;1.83;1.70;;;18.30;57.80;;;;;;4912947;28;92013;-72
2022/04/13 03:05:20;;;;;;;2.92;1.88;;;18.30;57.80;;;;;;4894015;28;92747;-71
2022/04/13 03:07:46;;;;;;;2.70;1.77;;;18.20;57.80;;;;;;4912245;28;93475;-71
2022/04/13 03:10:11;;;;;;;2.85;1.92;;;18.30;57.90;;;;;;4910301;28;96330;-71
2022/04/13 03:12:37;;;;;;;4.13;2.00;;;18.20;57.80;;;;;;4911394;28;93326;-71
2022/04/13 03:15:07;;;;;;;1.90;1.70;;;18.20;57.80;;;;;;4911856;28;94123;-71
2022/04/13 04:18:50;;;;;;;2.58;1.90;;;18.10;57.90;;;;;;5191135;23;96306;-66
2022/04/13 04:21:16;;;;;;;2.55;2.00;;;18.10;57.90;;;;;;4895733;28;92820;-65
2022/04/13 04:23:43;;;;;;;3.38;1.90;;;18.20;57.90;;;;;;4895295;28;94079;-66
2022/04/13 04:26:10;;;;;;;3.40;2.10;;;18.20;57.90;;;;;;4897312;28;92836;-68
2022/04/13 04:28:36;;;;;;;2.53;1.98;;;18.20;57.90;;;;;;4896689;28;92585;-67
2022/04/13 04:31:02;;;;;;;2.53;1.85;;;18.10;57.80;;;;;;4896883;28;92544;-67
2022/04/13 04:33:28;;;;;;;2.67;2.10;;;18.20;57.90;;;;;;4911233;28;95545;-67
2022/04/13 04:35:54;;;;;;;2.72;2.03;;;18.10;57.80;;;;;;4915324;28;95213;-66
2022/04/13 04:38:20;;;;;;;2.50;2.30;;;18.20;57.90;;;;;;4915573;28;92543;-67
2022/04/13 04:40:45;;;;;;;2.95;2.20;;;18.10;57.80;;;;;;4915518;28;92600;-67
2022/04/13 04:43:11;;;;;;;2.40;2.08;;;18.10;57.80;;;;;;4915340;28;93155;-68
2022/04/13 04:45:37;;;;;;;2.47;1.90;;;18.10;57.90;;;;;;4915295;28;93947;-67
2022/04/13 04:48:06;;;;;;;2.58;2.10;;;18.10;57.80;;;;;;4916040;28;93347;-68
2022/04/13 04:50:34;;;;;;;2.58;1.98;;;18.10;57.80;;;;;;4915121;28;92235;-67
2022/04/13 04:52:59;;;;;;;3.28;2.08;;;18.10;57.80;;;;;;4915758;28;94364;-68
2022/04/13 04:55:25;;;;;;;3.13;2.20;;;18.20;57.90;;;;;;4915237;28;99004;-67
2022/04/13 04:57:51;;;;;;;2.72;1.98;;;18.10;57.80;;;;;;4914332;28;95470;-66
2022/04/13 05:00:19;;;;;;;2.58;1.90;;;18.10;57.80;;;;;;4915624;28;92565;-67
2022/04/13 05:02:51;;;;;;;4.32;2.00;;;18.10;57.90;;;;;;4916320;28;92978;-68
2022/04/13 05:05:20;;;;;;;2.47;1.60;;;18.10;57.80;;;;;;4915274;28;92803;-68
2022/04/13 05:07:47;;;;;;;2.92;2.10;;;18.20;57.90;;;;;;4915508;28;92629;-67
2022/04/13 05:10:12;;;;;;;3.40;2.05;;;18.10;57.80;;;;;;4915825;28;93029;-67
2022/04/13 05:12:49;;;;;;;3.13;2.10;;;18.10;57.80;;;;;;4914753;28;103871;-67
2022/04/13 05:15:15;;;;;;;4.45;2.20;;;18.10;57.80;;;;;;4915613;28;93310;-66
2022/04/13 05:17:42;;;;;;;3.60;2.05;;;18.10;57.80;;;;;;4914897;28;92607;-67
2022/04/13 05:20:08;;;;;;;4.05;2.15;;;18.10;57.80;;;;;;4915637;28;92548;-67
2022/04/13 05:22:35;;;;;;;3.45;2.03;;;18.10;57.80;;;;;;4913483;28;94964;-67
2022/04/13 05:25:05;;;;;;;3.17;2.03;;;18.10;57.80;;;;;;4915652;28;95150;-69
2022/04/13 05:27:31;;;;;;;3.38;2.17;;;18.10;57.80;;;;;;4916183;28;92884;-67
2022/04/13 05:29:57;;;;;;;2.83;2.20;;;18.10;57.90;;;;;;4915628;28;92538;-67
2022/04/13 05:32:23;;;;;;;3.17;2.08;;;18.10;57.90;;;;;;4915426;28;92996;-65
2022/04/13 05:34:49;;;;;;;3.53;2.20;;;18.10;57.90;;;;;;4914649;28;93196;-65
2022/04/13 05:37:14;;;;;;;4.03;2.40;;;18.10;57.90;;;;;;4915332;28;93011;-65
2022/04/13 05:39:40;;;;;;;2.70;2.15;;;18.10;57.90;;;;;;4914887;28;92453;-69
2022/04/13 05:42:05;;;;;;;4.07;2.15;;;18.10;58.00;;;;;;4914790;28;94159;-66
2022/04/13 05:44:32;;;;;;;3.38;2.00;;;18.10;57.90;;;;;;4914562;28;92537;-69
2022/04/13 05:46:57;;;;;;;2.55;1.92;;;18.10;57.90;;;;;;4913890;28;94946;-71
2022/04/13 05:49:23;;;;;;;5.35;2.92;;;18.10;57.90;;;;;;4914405;28;97868;-66
2022/04/13 05:51:48;;;;;;;6.88;2.80;;;18.10;57.90;;;;;;4914160;28;93060;-67
2022/04/13 05:54:14;;;;;;;10.05;3.47;;;18.10;58.10;;;;;;4914486;28;92750;-67
2022/04/13 05:56:39;;;;;;;7.60;2.75;;;18.10;58.00;;;;;;4914947;28;92608;-66
2022/04/13 05:59:06;;;;;;;6.75;2.85;;;18.10;58.00;;;;;;4916275;28;100761;-67
2022/04/13 06:01:31;;;;;;;4.43;2.60;;;18.10;58.10;;;;;;4918700;28;95190;-66
2022/04/13 06:03:57;;;;;;;6.45;2.63;;;18.10;58.30;;;;;;4915091;28;94343;-66
2022/04/13 06:06:25;;;;;;;4.20;2.50;;;18.10;58.20;;;;;;4914251;28;98153;-67
2022/04/13 06:08:52;;;;;;;5.47;2.78;;;18.10;58.20;;;;;;4913623;28;93240;-70
2022/04/13 06:11:17;;;;;;;3.88;2.50;;;18.20;58.20;;;;;;4913132;28;97193;-67
2022/04/13 06:13:43;;;;;;;5.53;2.60;;;18.20;58.20;;;;;;4914085;28;95035;-67
2022/04/13 06:16:08;;;;;;;4.32;2.47;;;18.30;58.20;;;;;;4914377;28;93044;-67
2022/04/13 06:18:35;;;;;;;5.53;2.50;;;18.30;58.10;;;;;;4913888;28;93132;-66
2022/04/13 06:21:01;;;;;;;5.05;2.45;;;18.40;58.00;;;;;;4913282;28;93026;-67
2022/04/13 06:23:26;;;;;;;4.05;2.35;;;18.40;57.90;;;;;;4913581;28;92612;-67
2022/04/13 06:25:52;;;;;;;3.95;2.40;;;18.50;57.90;;;;;;4914419;28;92921;-69
2022/04/13 06:28:17;;;;;;;3.83;2.47;;;18.50;57.80;;;;;;4913709;28;95869;-67
2022/04/13 06:30:44;;;;;;;5.18;2.13;;;18.60;57.60;;;;;;4914159;28;94205;-67
2022/04/13 06:33:09;;;;;;;3.15;2.20;;;18.60;57.50;;;;;;4914646;28;92746;-66
2022/04/13 06:35:35;;;;;;;3.58;2.05;;;18.70;57.40;;;;;;4913196;28;95046;-68
2022/04/13 06:38:01;;;;;;;4.45;2.20;;;18.70;57.30;;;;;;4914175;28;92535;-68
2022/04/13 06:40:26;;;;;;;3.13;2.08;;;18.80;57.20;;;;;;4913650;28;93021;-66
2022/04/13 06:42:52;;;;;;;4.22;2.15;;;18.90;57.10;;;;;;4914673;28;92777;-67
2022/04/13 06:45:18;;;;;;;2.83;1.73;;;18.90;57.00;;;;;;4914245;28;92499;-67
2022/04/13 06:47:44;;;;;;;4.80;2.03;;;19.00;56.90;;;;;;4913422;28;92462;-66
2022/04/13 06:50:10;;;;;;;3.08;1.98;;;19.00;56.70;;;;;;4909389;28;100804;-69
2022/04/13 06:52:38;;;;;;;3.90;1.98;;;19.00;56.60;;;;;;4910062;28;100009;-67
2022/04/13 06:55:04;;;;;;;3.50;1.95;;;19.00;56.60;;;;;;4910274;28;98852;-66
2022/04/13 06:57:37;;;;;;;3.08;2.00;;;19.10;56.70;;;;;;4909848;28;98907;-66
2022/04/13 07:00:07;;;;;;;3.30;1.92;;;19.10;56.70;;;;;;4909394;28;101172;-67
2022/04/13 07:02:37;;;;;;;4.32;2.00;;;19.10;56.70;;;;;;4910465;28;100137;-67
2022/04/13 07:05:03;;;;;;;3.25;1.88;;;19.10;56.60;;;;;;4910922;28;99326;-67
2022/04/13 07:07:30;;;;;;;3.33;1.80;;;19.10;56.70;;;;;;4911540;28;98578;-67
2022/04/13 07:09:56;;;;;;;3.50;1.85;;;19.10;56.60;;;;;;4910103;28;100677;-66
2022/04/13 07:12:22;;;;;;;3.75;2.00;;;19.00;56.60;;;;;;4891998;28;99180;-67
2022/04/13 07:14:48;;;;;;;2.60;2.05;;;19.00;56.80;;;;;;4910343;28;100241;-67
2022/04/13 07:17:13;;;;;;;3.45;1.80;;;19.00;56.80;;;;;;4910797;28;97868;-66
2022/04/13 07:19:39;;;;;;;2.70;1.90;;;19.00;56.90;;;;;;4909616;28;99710;-67
2022/04/13 07:22:06;;;;;;;3.35;1.95;;;19.00;56.90;;;;;;4909150;28;98937;-67
2022/04/13 07:24:31;;;;;;;3.45;1.95;;;19.00;56.90;;;;;;4909866;28;100209;-67
2022/04/13 07:26:57;;;;;;;3.05;2.20;;;19.00;57.00;;;;;;4910312;28;99112;-69
2022/04/13 07:29:23;;;;;;;3.20;1.77;;;19.00;57.00;;;;;;4909431;28;99063;-67
2022/04/13 07:31:48;;;;;;;3.38;1.90;;;19.00;57.00;;;;;;4909757;28;98821;-67
2022/04/13 07:34:14;;;;;;;2.75;1.65;;;19.00;57.10;;;;;;4892132;28;98969;-66
2022/04/13 07:36:40;;;;;;;2.50;1.90;;;19.00;57.10;;;;;;4909389;28;98838;-68
2022/04/13 07:39:06;;;;;;;2.97;1.90;;;18.90;57.10;;;;;;4910626;28;99586;-67
2022/04/13 07:41:33;;;;;;;3.15;1.92;;;18.90;57.10;;;;;;4912534;28;100083;-67
2022/04/13 07:44:00;;;;;;;3.85;2.10;;;19.00;57.20;;;;;;4914691;28;98566;-67
2022/04/13 07:46:27;;;;;;;2.33;1.63;;;18.90;57.20;;;;;;4911633;28;98833;-67
2022/04/13 07:48:56;;;;;;;2.63;1.85;;;18.90;57.20;;;;;;4909825;28;101971;-66
2022/04/13 07:51:21;;;;;;;2.78;1.90;;;18.90;57.20;;;;;;4910245;28;99433;-67
2022/04/13 07:53:48;;;;;;;3.58;1.98;;;18.90;57.30;;;;;;4909786;28;98594;-66
2022/04/13 07:56:13;;;;;;;2.85;2.30;;;18.90;57.30;;;;;;4911137;28;98969;-67
2022/04/13 07:58:39;;;;;;;2.90;2.13;;;18.90;57.40;;;;;;4911188;28;106853;-68
2022/04/13 08:01:05;;;;;;;3.00;2.10;;;18.90;57.40;;;;;;4913182;28;100952;-68
2022/04/13 08:03:31;;;;;;;2.67;1.90;;;18.90;57.50;;;;;;4912843;28;99159;-70
2022/04/13 08:05:56;;;;;;;2.88;1.83;;;18.80;57.50;;;;;;4913504;28;98461;-67
2022/04/13 08:08:22;;;;;;;3.53;1.75;;;18.80;58.50;;;;;;4912737;28;100345;-66
2022/04/13 08:10:48;;;;;;;3.33;2.05;;;18.80;57.50;;;;;;4894541;28;99000;-66
2022/04/13 08:13:13;;;;;;;3.80;2.13;;;18.80;57.60;;;;;;4912653;28;99370;-67
2022/04/13 08:15:39;;;;;;;2.30;1.90;;;18.80;57.60;;;;;;4913660;28;98570;-67
2022/04/13 08:18:05;;;;;;;2.92;1.98;;;18.80;57.70;;;;;;4911804;28;99366;-67
2022/04/13 08:20:30;;;;;;;2.28;1.80;;;18.80;57.60;;;;;;4912229;28;99920;-67
2022/04/13 08:22:57;;;;;;;3.45;2.00;;;18.80;57.60;;;;;;4894754;28;99263;-67
2022/04/13 08:25:24;;;;;;;2.88;1.90;;;18.80;57.60;;;;;;4912535;28;98784;-67
2022/04/13 08:27:49;;;;;;;3.58;1.90;;;18.80;57.70;;;;;;4911929;28;99183;-67
2022/04/13 08:30:15;;;;;;;2.08;1.88;;;18.80;57.70;;;;;;4912776;28;115197;-67
2022/04/13 08:32:42;;;;;;;3.25;2.05;;;18.80;57.70;;;;;;4912444;28;98782;-68
2022/04/13 08:35:09;;;;;;;2.28;1.70;;;18.80;57.70;;;;;;4912585;28;98969;-67
2022/04/13 08:37:35;;;;;;;3.13;2.05;;;18.80;57.70;;;;;;4911642;28;101003;-67
2022/04/13 08:40:01;;;;;;;2.42;1.63;;;18.80;57.80;;;;;;4912173;28;100130;-66
2022/04/13 08:42:47;;;;;;;3.40;1.77;;;18.80;57.80;;;;;;4911965;28;98901;-67
2022/04/13 08:45:22;;;;;;;3.13;1.83;;;18.80;57.70;;;;;;4912820;28;99867;-65
2022/04/13 08:47:50;;;;;;;3.42;1.80;;;18.80;57.80;;;;;;4913390;28;99430;-65
2022/04/13 08:50:17;;;;;;;4.35;1.83;;;18.80;57.80;;;;;;4894360;28;99606;-66
2022/04/13 08:52:49;;;;;;;2.85;1.70;;;18.80;57.80;;;;;;4911951;28;98621;-70
2022/04/13 08:55:16;;;;;;;2.63;1.95;;;18.80;57.80;;;;;;4912758;28;98577;-66
2022/04/13 08:57:47;;;;;;;2.85;1.70;;;18.80;57.80;;;;;;4911321;28;100312;-66
2022/04/13 09:00:15;;;;;;;2.97;1.80;;;18.80;57.90;;;;;;4911602;28;98787;-67
2022/04/13 09:03:06;;;;;;;2.75;1.85;;;18.80;57.90;;;;;;4912433;28;99925;-66
2022/04/13 09:05:33;;;;;;;2.17;1.48;;;18.80;57.80;;;;;;4894471;28;99110;-67
2022/04/13 09:08:08;;;;;;;2.88;1.60;;;18.80;58.90;;;;;;4911235;28;99219;-67
2022/04/13 09:10:36;;;;;;;2.83;1.70;;;18.80;57.90;;;;;;4910479;28;100029;-67
2022/04/13 09:13:02;;;;;;;2.10;1.50;;;18.80;58.00;;;;;;4911546;28;98605;-66
2022/04/13 09:15:29;;;;;;;2.88;1.70;;;18.80;58.00;;;;;;4912447;28;99285;-68
2022/04/13 09:17:55;;;;;;;2.63;1.60;;;18.80;58.00;;;;;;4911713;28;98736;-68
2022/04/13 09:20:21;;;;;;;2.97;1.80;;;18.80;58.10;;;;;;4910625;28;100106;-67
2022/04/13 09:22:50;;;;;;;2.55;1.58;;;18.70;58.00;;;;;;4911600;28;98641;-67
2022/04/13 09:25:19;;;;;;;2.83;1.55;;;18.80;58.00;;;;;;4913328;28;99111;-67
2022/04/13 09:27:48;;;;;;;1.83;1.40;;;18.70;58.00;;;;;;4915704;28;100915;-68
2022/04/13 09:30:13;;;;;;;3.55;1.55;;;18.80;58.10;;;;;;4914505;28;98680;-66
2022/04/13 09:32:39;;;;;;;3.80;1.75;;;18.80;58.00;;;;;;4912654;28;98717;-67
2022/04/13 09:35:05;;;;;;;2.67;1.40;;;18.80;58.00;;;;;;4912566;28;99017;-65
2022/04/13 09:37:33;;;;;;;1.83;1.48;;;18.80;58.00;;;;;;4910784;28;99265;-66
2022/04/13 09:40:00;;;;;;;2.15;1.50;;;18.80;58.10;;;;;;4911708;28;99252;-67
2022/04/13 09:42:27;;;;;;;1.55;1.30;;;18.80;58.20;;;;;;4910873;28;98815;-68
2022/04/13 09:44:56;;;;;;;2.45;1.73;;;18.80;58.10;;;;;;4911851;28;97970;-67
2022/04/13 09:47:30;;;;;;;2.97;1.50;;;18.80;58.00;;;;;;4910873;28;100155;-67
2022/04/13 09:49:57;;;;;;;2.08;1.48;;;18.80;58.00;;;;;;4910668;28;100073;-67
2022/04/13 09:52:38;;;;;;;1.92;1.40;;;18.80;58.10;;;;;;4911667;28;99750;-67
2022/04/13 09:55:05;;;;;;;2.55;1.30;;;18.80;58.00;;;;;;4911604;28;99097;-67
2022/04/13 09:57:31;;;;;;;1.63;1.42;;;18.80;58.20;;;;;;4910560;28;100935;-67
2022/04/13 09:59:59;;;;;;;2.15;1.33;;;18.80;58.10;;;;;;4894019;28;102759;-67
2022/04/13 10:02:42;;;;;;;2.78;1.52;;;18.80;58.00;;;;;;4910567;28;99150;-66
2022/04/13 10:05:19;;;;;;;2.05;1.30;;;18.80;57.90;;;;;;4911293;28;98851;-67
2022/04/13 10:07:45;;;;;;;1.88;1.35;;;18.80;58.00;;;;;;4910723;28;99753;-68
2022/04/13 10:10:31;;;;;;;2.97;1.40;;;18.80;58.00;;;;;;4911208;28;101674;-67
2022/04/13 10:12:57;;;;;;;2.65;1.50;;;18.80;58.00;;;;;;4910351;28;98622;-67
2022/04/13 10:15:22;;;;;;;1.92;1.30;;;18.80;58.00;;;;;;4910505;28;98715;-69
2022/04/13 10:17:48;;;;;;;2.08;1.25;;;18.80;58.00;;;;;;4911005;28;99887;-67
2022/04/13 10:20:14;;;;;;;1.92;1.20;;;18.80;58.10;;;;;;4910294;28;99735;-68
2022/04/13 10:22:59;;;;;;;2.35;1.30;;;18.80;59.10;;;;;;4909945;28;98627;-67
2022/04/13 10:25:27;;;;;;;2.30;1.40;;;18.80;58.10;;;;;;4910569;28;98650;-68
2022/04/13 10:27:56;;;;;;;2.15;1.60;;;18.80;58.10;;;;;;4910178;28;100325;-67
2022/04/13 10:30:26;;;;;;;1.63;1.23;;;18.80;58.10;;;;;;4910573;28;100004;-68
2022/04/13 10:33:05;;;;;;;2.35;1.52;;;18.80;58.20;;;;;;4911213;28;99027;-66
2022/04/13 10:35:36;;;;;;;1.95;1.40;;;18.80;58.10;;;;;;4910008;28;98134;-66
2022/04/13 10:38:03;;;;;;;1.80;1.30;;;18.80;58.20;;;;;;4909693;28;99389;-67
2022/04/13 10:40:38;;;;;;;1.90;1.35;;;18.80;58.10;;;;;;4908944;28;99818;-66
2022/04/13 10:43:05;;;;;;;3.00;1.35;;;18.80;58.10;;;;;;4909148;28;99422;-67
2022/04/13 10:45:33;;;;;;;3.25;1.65;;;18.80;58.20;;;;;;4909272;28;100910;-67
2022/04/13 10:48:05;;;;;;;1.60;1.30;;;18.80;58.10;;;;;;4908604;28;100680;-67
2022/04/13 10:50:46;;;;;;;2.92;1.40;;;18.80;58.20;;;;;;4909642;28;99923;-67
2022/04/13 10:53:11;;;;;;;1.85;1.50;;;18.80;58.10;;;;;;4909749;28;99031;-67
2022/04/13 10:55:37;;;;;;;2.58;1.20;;;18.80;58.20;;;;;;4892106;28;99179;-67
2022/04/13 10:58:08;;;;;;;2.80;1.67;;;18.80;58.20;;;;;;4910489;28;100170;-66
2022/04/13 11:00:37;;;;;;;2.33;1.30;;;18.80;58.20;;;;;;4909768;28;99854;-67
2022/04/13 11:03:05;;;;;;;2.22;1.40;;;18.70;58.20;;;;;;4910728;28;98752;-69
2022/04/13 11:05:32;;;;;;;2.30;1.50;;;18.70;58.20;;;;;;4911045;28;98497;-67
2022/04/13 11:08:29;;;;;;;2.10;1.33;;;18.70;58.20;;;;;;4911064;28;100426;-67
2022/04/13 11:10:55;;;;;;;2.72;1.30;;;18.70;58.20;;;;;;4912782;28;99526;-66
2022/04/13 11:13:21;;;;;;;2.40;1.40;;;18.70;58.30;;;;;;4912507;28;99048;-66
2022/04/13 11:15:49;;;;;;;1.85;1.30;;;18.70;58.30;;;;;;4893721;28;98932;-66
2022/04/13 11:18:17;;;;;;;2.15;1.35;;;18.70;58.20;;;;;;4909155;28;100209;-66
2022/04/13 11:21:03;;;;;;;2.15;1.38;;;18.70;58.30;;;;;;4909423;28;98675;-66
2022/04/13 11:23:49;;;;;;;2.08;1.30;;;18.70;58.20;;;;;;4909432;28;99102;-66
2022/04/13 11:26:23;;;;;;;2.70;1.50;;;18.70;58.20;;;;;;4909901;28;97812;-66
2022/04/13 11:29:09;;;;;;;2.95;1.42;;;18.70;58.30;;;;;;4908777;28;99934;-67
2022/04/13 11:32:00;;;;;;;2.88;1.50;;;18.70;58.30;;;;;;4908234;28;99235;-66
2022/04/13 11:34:40;;;;;;;1.90;1.33;;;18.70;58.30;;;;;;4908112;28;99337;-70
2022/04/13 11:37:08;;;;;;;1.95;1.40;;;18.70;58.40;;;;;;4909307;28;98967;-66
2022/04/13 11:39:54;;;;;;;2.40;1.65;;;18.70;58.40;;;;;;4909191;28;100476;-66
2022/04/13 11:42:26;;;;;;;2.72;1.30;;;18.70;58.30;;;;;;4908578;28;100772;-66
2022/04/13 11:45:04;;;;;;;2.10;1.30;;;18.70;58.50;;;;;;4908988;28;98568;-66
2022/04/13 11:47:51;;;;;;;1.65;1.40;;;18.70;58.40;;;;;;4908257;28;99088;-66
2022/04/13 11:50:19;;;;;;;2.25;1.50;;;18.70;58.50;;;;;;4907447;28;100717;-67
2022/04/13 11:53:07;;;;;;;2.17;1.50;;;18.60;58.50;;;;;;4908900;28;99923;-66
2022/04/13 11:55:43;;;;;;;2.80;1.38;;;18.70;58.50;;;;;;4909245;28;98618;-66
2022/04/13 11:58:08;;;;;;;3.30;1.50;;;18.70;58.50;;;;;;4908387;28;100014;-68
2022/04/13 12:00:44;;;;;;;2.67;1.60;;;18.60;58.50;;;;;;4907725;28;101230;-67
2022/04/13 12:03:15;;;;;;;1.88;1.30;;;18.60;58.50;;;;;;4908668;28;99610;-67
2022/04/13 12:05:50;;;;;;;3.17;1.58;;;18.60;58.50;;;;;;4909136;28;98727;-67
2022/04/13 12:08:18;;;;;;;3.10;1.48;;;18.60;59.50;;;;;;4908588;28;99050;-67
2022/04/13 12:10:46;;;;;;;2.10;1.40;;;18.60;58.50;;;;;;4907460;28;99198;-67
2022/04/13 12:13:12;;;;;;;3.08;1.40;;;18.60;58.60;;;;;;4908412;28;100006;-67
2022/04/13 12:15:51;;;;;;;2.15;1.45;;;18.60;58.60;;;;;;4908458;28;99206;-67
2022/04/13 12:18:19;;;;;;;4.20;1.88;;;18.60;58.60;;;;;;4909544;28;98845;-67
2022/04/13 12:20:47;;;;;;;1.88;1.40;;;18.60;58.60;;;;;;4908020;28;100158;-67
2022/04/13 12:23:17;;;;;;;2.45;1.40;;;18.60;58.60;;;;;;4890960;28;101355;-67
2022/04/13 12:25:44;;;;;;;4.38;1.35;;;18.60;58.60;;;;;;4907958;28;99798;-67
2022/04/13 12:28:11;;;;;;;2.90;1.63;;;18.60;58.60;;;;;;4907954;28;99120;-67
2022/04/13 12:30:38;;;;;;;1.75;1.48;;;18.60;58.50;;;;;;4908057;28;100194;-67
2022/04/13 12:33:16;;;;;;;2.70;1.63;;;18.60;58.60;;;;;;4907682;28;99133;-67
2022/04/13 12:35:54;;;;;;;3.15;1.55;;;18.60;58.50;;;;;;4908756;28;99133;-67
2022/04/13 12:38:27;;;;;;;3.63;1.75;;;18.60;58.60;;;;;;4908096;28;99161;-67
2022/04/13 12:41:01;;;;;;;2.95;1.75;;;18.60;58.70;;;;;;4908262;28;99068;-67
2022/04/13 12:43:27;;;;;;;2.42;1.63;;;18.60;58.70;;;;;;4908085;28;98837;-67
2022/04/13 12:45:53;;;;;;;2.35;1.50;;;18.60;58.70;;;;;;4910418;28;99083;-67
2022/04/13 12:48:26;;;;;;;3.13;1.70;;;18.60;58.60;;;;;;4911324;28;98822;-67
2022/04/13 12:50:55;;;;;;;;;;;18.60;58.70;;;;;;4913891;28;100438;-67
2022/04/13 12:53:20;;;;;;;2.58;1.67;;;18.50;58.60;;;;;;4916240;28;99244;-67
2022/04/13 12:55:57;;;;;;;2.90;1.40;;;18.60;58.80;;;;;;4914295;28;99568;-66
2022/04/13 12:58:23;;;;;;;2.65;1.42;;;18.60;58.70;;;;;;4914204;28;99244;-67
2022/04/13 13:00:54;;;;;;;3.00;1.55;;;18.60;58.80;;;;;;4911949;28;100080;-69
2022/04/13 13:03:21;;;;;;;3.40;1.70;;;18.60;58.70;;;;;;4912012;28;99007;-67
2022/04/13 13:05:47;;;;;;;2.03;1.33;;;18.60;58.70;;;;;;4911428;28;98825;-67
2022/04/13 13:08:14;;;;;;;1.77;1.30;;;18.70;58.80;;;;;;4911879;28;98753;-67
2022/04/13 13:10:45;;;;;;;2.60;1.42;;;18.70;58.80;;;;;;4911162;28;99910;-68
2022/04/13 13:13:17;;;;;;;3.75;1.60;;;18.70;58.60;;;;;;4910782;28;100296;-67
2022/04/13 13:15:44;;;;;;;3.17;1.42;;;18.70;59.70;;;;;;4911039;28;99734;-67
2022/04/13 13:18:10;;;;;;;3.15;1.70;;;18.70;58.60;;;;;;4910287;28;98665;-67
2022/04/13 13:20:53;;;;;;;2.80;1.50;;;18.70;58.60;;;;;;4909915;28;99836;-67
2022/04/13 13:23:24;;;;;;;2.47;1.40;;;18.70;58.60;;;;;;4910679;28;99943;-67
2022/04/13 13:25:50;;;;;;;1.90;1.40;;;18.70;58.60;;;;;;4911090;28;99086;-67
2022/04/13 13:28:15;;;;;;;2.28;1.52;;;18.70;58.60;;;;;;4910757;28;99089;-67
2022/04/13 13:30:41;;;;;;;2.28;1.35;;;18.80;58.60;;;;;;4910110;28;104994;-67
2022/04/13 13:33:12;;;;;;;2.47;1.33;;;18.80;58.50;;;;;;4911218;28;98642;-67
2022/04/13 13:35:38;;;;;;;2.35;1.23;;;18.80;58.40;;;;;;4911455;28;99036;-70
2022/04/13 13:38:11;;;;;;;2.00;1.40;;;18.80;58.40;;;;;;4911187;28;98678;-67
2022/04/13 13:40:37;;;;;;;2.42;1.40;;;18.90;58.40;;;;;;4910568;28;100857;-67
2022/04/13 13:43:06;;;;;;;1.67;1.25;;;18.90;58.40;;;;;;4910368;28;99645;-68
2022/04/13 13:45:39;;;;;;;3.03;1.35;;;18.90;58.30;;;;;;4910767;28;99126;-67
2022/04/13 13:48:11;;;;;;;2.90;1.45;;;18.90;58.30;;;;;;4910424;28;98855;-68
2022/04/13 13:50:39;;;;;;;2.33;1.30;;;18.90;58.40;;;;;;4910614;28;98969;-67
2022/04/13 13:53:07;;;;;;;2.92;1.45;;;18.90;58.40;;;;;;4910727;28;98975;-68